sensor_id;sensor_type;location;lat;lon;timestamp;P1;durP1;ratioP1;P2;durP2;ratioP2
16804;SDS011;8520;50.102;20.010;2022-08-21T00:00:51;80.57;;;75.45;;
16804;SDS011;8520;50.102;20.010;2022-08-21T00:03:40;80.50;;;75.05;;
16804;SDS011;8520;50.102;20.010;2022-08-21T00:06:28;79.30;;;74.15;;
16804;SDS011;8520;50.102;20.010;2022-08-21T00:09:17;82.38;;;76.88;;
16804;SDS011;8520;50.102;20.010;2022-08-21T00:12:08;81.25;;;75.82;;
16804;SDS011;8520;50.102;20.010;2022-08-21T00:14:56;80.63;;;75.40;;
16804;SDS011;8520;50.102;20.010;2022-08-21T00:17:46;81.45;;;76.43;;
16804;SDS011;8520;50.102;20.010;2022-08-21T00:20:35;79.90;;;74.80;;
16804;SDS011;8520;50.102;20.010;2022-08-21T00:23:24;81.40;;;75.95;;
16804;SDS011;8520;50.102;20.010;2022-08-21T00:26:12;83.32;;;77.82;;
16804;SDS011;8520;50.102;20.010;2022-08-21T00:29:02;84.47;;;79.03;;
16804;SDS011;8520;50.102;20.010;2022-08-21T00:31:51;88.32;;;82.18;;
16804;SDS011;8520;50.102;20.010;2022-08-21T00:34:40;84.93;;;79.43;;
16804;SDS011;8520;50.102;20.010;2022-08-21T00:37:28;88.07;;;82.32;;
16804;SDS011;8520;50.102;20.010;2022-08-21T00:40:22;89.10;;;83.07;;
16804;SDS011;8520;50.102;20.010;2022-08-21T00:43:16;91.13;;;84.85;;
16804;SDS011;8520;50.102;20.010;2022-08-21T00:46:07;92.80;;;86.13;;
16804;SDS011;8520;50.102;20.010;2022-08-21T00:48:56;92.10;;;85.93;;
16804;SDS011;8520;50.102;20.010;2022-08-21T00:51:47;93.85;;;87.72;;
16804;SDS011;8520;50.102;20.010;2022-08-21T00:54:37;92.70;;;86.50;;
16804;SDS011;8520;50.102;20.010;2022-08-21T00:57:33;96.57;;;89.78;;
16804;SDS011;8520;50.102;20.010;2022-08-21T01:00:28;96.00;;;89.50;;
16804;SDS011;8520;50.102;20.010;2022-08-21T01:03:21;94.00;;;87.80;;
16804;SDS011;8520;50.102;20.010;2022-08-21T01:06:11;94.60;;;88.32;;
16804;SDS011;8520;50.102;20.010;2022-08-21T01:09:00;95.10;;;88.60;;
16804;SDS011;8520;50.102;20.010;2022-08-21T01:11:48;97.07;;;90.68;;
16804;SDS011;8520;50.102;20.010;2022-08-21T01:14:37;97.00;;;90.55;;
16804;SDS011;8520;50.102;20.010;2022-08-21T01:17:28;98.60;;;92.13;;
16804;SDS011;8520;50.102;20.010;2022-08-21T01:20:19;99.25;;;92.47;;
16804;SDS011;8520;50.102;20.010;2022-08-21T01:23:08;99.65;;;92.93;;
16804;SDS011;8520;50.102;20.010;2022-08-21T01:25:57;100.50;;;93.93;;
16804;SDS011;8520;50.102;20.010;2022-08-21T01:28:47;100.88;;;93.97;;
16804;SDS011;8520;50.102;20.010;2022-08-21T01:31:39;99.10;;;92.68;;
16804;SDS011;8520;50.102;20.010;2022-08-21T01:34:28;101.05;;;94.10;;
16804;SDS011;8520;50.102;20.010;2022-08-21T01:37:17;100.57;;;93.75;;
16804;SDS011;8520;50.102;20.010;2022-08-21T01:40:09;102.55;;;95.68;;
16804;SDS011;8520;50.102;20.010;2022-08-21T01:42:58;102.07;;;94.90;;
16804;SDS011;8520;50.102;20.010;2022-08-21T01:45:47;101.50;;;94.40;;
16804;SDS011;8520;50.102;20.010;2022-08-21T01:48:35;101.65;;;94.75;;
16804;SDS011;8520;50.102;20.010;2022-08-21T01:51:25;101.18;;;94.32;;
16804;SDS011;8520;50.102;20.010;2022-08-21T01:54:13;100.05;;;93.25;;
16804;SDS011;8520;50.102;20.010;2022-08-21T01:57:03;103.55;;;96.38;;
16804;SDS011;8520;50.102;20.010;2022-08-21T01:59:52;102.05;;;95.03;;
16804;SDS011;8520;50.102;20.010;2022-08-21T02:02:41;101.88;;;95.03;;
16804;SDS011;8520;50.102;20.010;2022-08-21T02:05:30;104.57;;;97.57;;
16804;SDS011;8520;50.102;20.010;2022-08-21T02:08:19;105.97;;;98.63;;
16804;SDS011;8520;50.102;20.010;2022-08-21T02:11:09;107.22;;;99.75;;
16804;SDS011;8520;50.102;20.010;2022-08-21T02:13:59;106.22;;;99.07;;
16804;SDS011;8520;50.102;20.010;2022-08-21T02:16:48;107.47;;;99.88;;
16804;SDS011;8520;50.102;20.010;2022-08-21T02:19:51;107.03;;;99.45;;
16804;SDS011;8520;50.102;20.010;2022-08-21T02:22:39;108.38;;;100.80;;
16804;SDS011;8520;50.102;20.010;2022-08-21T02:25:28;108.38;;;100.75;;
16804;SDS011;8520;50.102;20.010;2022-08-21T02:28:17;104.85;;;97.57;;
16804;SDS011;8520;50.102;20.010;2022-08-21T02:31:07;106.15;;;98.68;;
16804;SDS011;8520;50.102;20.010;2022-08-21T02:33:55;107.65;;;100.13;;
16804;SDS011;8520;50.102;20.010;2022-08-21T02:36:44;106.00;;;98.50;;
16804;SDS011;8520;50.102;20.010;2022-08-21T02:39:45;104.72;;;97.63;;
16804;SDS011;8520;50.102;20.010;2022-08-21T02:42:33;108.93;;;100.97;;
16804;SDS011;8520;50.102;20.010;2022-08-21T02:45:22;104.50;;;97.50;;
16804;SDS011;8520;50.102;20.010;2022-08-21T02:48:13;105.50;;;97.95;;
16804;SDS011;8520;50.102;20.010;2022-08-21T02:51:04;106.18;;;98.93;;
16804;SDS011;8520;50.102;20.010;2022-08-21T02:53:59;105.63;;;98.53;;
16804;SDS011;8520;50.102;20.010;2022-08-21T02:56:47;107.50;;;99.60;;
16804;SDS011;8520;50.102;20.010;2022-08-21T02:59:36;104.88;;;97.55;;
16804;SDS011;8520;50.102;20.010;2022-08-21T03:02:24;105.68;;;98.10;;
16804;SDS011;8520;50.102;20.010;2022-08-21T03:05:15;104.93;;;97.68;;
16804;SDS011;8520;50.102;20.010;2022-08-21T03:08:05;104.63;;;97.35;;
16804;SDS011;8520;50.102;20.010;2022-08-21T03:10:56;104.13;;;97.07;;
16804;SDS011;8520;50.102;20.010;2022-08-21T03:13:46;102.70;;;95.82;;
16804;SDS011;8520;50.102;20.010;2022-08-21T03:16:35;104.05;;;97.03;;
16804;SDS011;8520;50.102;20.010;2022-08-21T03:19:23;102.25;;;95.22;;
16804;SDS011;8520;50.102;20.010;2022-08-21T03:22:13;102.80;;;95.70;;
16804;SDS011;8520;50.102;20.010;2022-08-21T03:25:02;101.57;;;94.60;;
16804;SDS011;8520;50.102;20.010;2022-08-21T03:27:52;101.35;;;94.47;;
16804;SDS011;8520;50.102;20.010;2022-08-21T03:30:46;102.18;;;94.85;;
16804;SDS011;8520;50.102;20.010;2022-08-21T03:33:36;101.10;;;94.18;;
16804;SDS011;8520;50.102;20.010;2022-08-21T03:36:25;100.95;;;94.20;;
16804;SDS011;8520;50.102;20.010;2022-08-21T03:39:15;100.22;;;93.25;;
16804;SDS011;8520;50.102;20.010;2022-08-21T03:42:04;101.38;;;94.07;;
16804;SDS011;8520;50.102;20.010;2022-08-21T03:44:53;98.35;;;91.63;;
16804;SDS011;8520;50.102;20.010;2022-08-21T03:47:50;98.93;;;92.03;;
16804;SDS011;8520;50.102;20.010;2022-08-21T03:50:40;101.75;;;94.75;;
16804;SDS011;8520;50.102;20.010;2022-08-21T03:53:31;101.57;;;94.50;;
16804;SDS011;8520;50.102;20.010;2022-08-21T03:56:20;100.60;;;93.80;;
16804;SDS011;8520;50.102;20.010;2022-08-21T03:59:09;101.60;;;94.32;;
16804;SDS011;8520;50.102;20.010;2022-08-21T04:01:58;102.40;;;95.18;;
16804;SDS011;8520;50.102;20.010;2022-08-21T04:04:49;104.68;;;97.07;;
16804;SDS011;8520;50.102;20.010;2022-08-21T04:07:37;104.45;;;97.15;;
16804;SDS011;8520;50.102;20.010;2022-08-21T04:10:26;105.90;;;98.47;;
16804;SDS011;8520;50.102;20.010;2022-08-21T04:13:17;103.75;;;96.22;;
16804;SDS011;8520;50.102;20.010;2022-08-21T04:16:06;104.43;;;97.05;;
16804;SDS011;8520;50.102;20.010;2022-08-21T04:18:54;104.22;;;97.00;;
16804;SDS011;8520;50.102;20.010;2022-08-21T04:21:43;103.68;;;96.60;;
16804;SDS011;8520;50.102;20.010;2022-08-21T04:24:31;105.78;;;98.13;;
16804;SDS011;8520;50.102;20.010;2022-08-21T04:27:20;104.72;;;97.47;;
16804;SDS011;8520;50.102;20.010;2022-08-21T04:30:10;103.68;;;96.53;;
16804;SDS011;8520;50.102;20.010;2022-08-21T04:33:00;105.43;;;97.65;;
16804;SDS011;8520;50.102;20.010;2022-08-21T04:35:50;103.22;;;95.95;;
16804;SDS011;8520;50.102;20.010;2022-08-21T04:38:39;102.75;;;95.70;;
16804;SDS011;8520;50.102;20.010;2022-08-21T04:41:30;104.10;;;96.72;;
16804;SDS011;8520;50.102;20.010;2022-08-21T04:44:18;103.57;;;96.35;;
16804;SDS011;8520;50.102;20.010;2022-08-21T04:47:08;102.07;;;95.00;;
16804;SDS011;8520;50.102;20.010;2022-08-21T04:49:57;100.60;;;93.40;;
16804;SDS011;8520;50.102;20.010;2022-08-21T04:52:45;100.90;;;93.75;;
16804;SDS011;8520;50.102;20.010;2022-08-21T04:55:35;100.95;;;93.72;;
16804;SDS011;8520;50.102;20.010;2022-08-21T04:58:24;96.68;;;90.47;;
16804;SDS011;8520;50.102;20.010;2022-08-21T05:01:23;95.40;;;88.90;;
16804;SDS011;8520;50.102;20.010;2022-08-21T05:04:16;94.40;;;88.03;;
16804;SDS011;8520;50.102;20.010;2022-08-21T05:07:10;92.85;;;86.55;;
16804;SDS011;8520;50.102;20.010;2022-08-21T05:10:00;94.10;;;87.65;;
16804;SDS011;8520;50.102;20.010;2022-08-21T05:12:49;91.60;;;85.00;;
16804;SDS011;8520;50.102;20.010;2022-08-21T05:15:37;91.45;;;85.25;;
16804;SDS011;8520;50.102;20.010;2022-08-21T05:18:26;92.07;;;85.97;;
16804;SDS011;8520;50.102;20.010;2022-08-21T05:21:16;90.72;;;84.50;;
16804;SDS011;8520;50.102;20.010;2022-08-21T05:24:04;89.28;;;82.93;;
16804;SDS011;8520;50.102;20.010;2022-08-21T05:26:53;87.85;;;81.68;;
16804;SDS011;8520;50.102;20.010;2022-08-21T05:29:41;87.43;;;81.30;;
16804;SDS011;8520;50.102;20.010;2022-08-21T05:32:30;86.20;;;80.30;;
16804;SDS011;8520;50.102;20.010;2022-08-21T05:35:18;83.65;;;78.28;;
16804;SDS011;8520;50.102;20.010;2022-08-21T05:38:08;83.57;;;77.80;;
16804;SDS011;8520;50.102;20.010;2022-08-21T05:41:04;85.68;;;79.05;;
16804;SDS011;8520;50.102;20.010;2022-08-21T05:43:52;82.63;;;76.82;;
16804;SDS011;8520;50.102;20.010;2022-08-21T05:46:41;80.68;;;75.20;;
16804;SDS011;8520;50.102;20.010;2022-08-21T05:49:29;79.75;;;74.10;;
16804;SDS011;8520;50.102;20.010;2022-08-21T05:52:18;80.35;;;74.90;;
16804;SDS011;8520;50.102;20.010;2022-08-21T05:55:09;79.60;;;74.07;;
16804;SDS011;8520;50.102;20.010;2022-08-21T05:57:57;78.47;;;72.63;;
16804;SDS011;8520;50.102;20.010;2022-08-21T06:00:47;75.53;;;70.22;;
16804;SDS011;8520;50.102;20.010;2022-08-21T06:03:38;74.82;;;69.82;;
16804;SDS011;8520;50.102;20.010;2022-08-21T06:06:27;74.47;;;69.03;;
16804;SDS011;8520;50.102;20.010;2022-08-21T06:09:16;71.38;;;65.90;;
16804;SDS011;8520;50.102;20.010;2022-08-21T06:12:06;69.72;;;64.72;;
16804;SDS011;8520;50.102;20.010;2022-08-21T06:14:56;68.00;;;63.03;;
16804;SDS011;8520;50.102;20.010;2022-08-21T06:17:45;66.50;;;61.78;;
16804;SDS011;8520;50.102;20.010;2022-08-21T06:20:33;67.50;;;62.63;;
16804;SDS011;8520;50.102;20.010;2022-08-21T06:23:22;66.47;;;61.55;;
16804;SDS011;8520;50.102;20.010;2022-08-21T06:26:19;66.40;;;61.45;;
16804;SDS011;8520;50.102;20.010;2022-08-21T06:29:09;65.28;;;60.47;;
16804;SDS011;8520;50.102;20.010;2022-08-21T06:31:59;64.85;;;60.08;;
16804;SDS011;8520;50.102;20.010;2022-08-21T06:34:47;64.55;;;59.85;;
16804;SDS011;8520;50.102;20.010;2022-08-21T06:37:36;63.92;;;59.45;;
16804;SDS011;8520;50.102;20.010;2022-08-21T06:40:24;64.93;;;60.15;;
16804;SDS011;8520;50.102;20.010;2022-08-21T06:43:16;64.40;;;59.38;;
16804;SDS011;8520;50.102;20.010;2022-08-21T06:46:06;60.47;;;55.92;;
16804;SDS011;8520;50.102;20.010;2022-08-21T06:48:55;58.83;;;54.38;;
16804;SDS011;8520;50.102;20.010;2022-08-21T06:51:43;57.60;;;53.22;;
16804;SDS011;8520;50.102;20.010;2022-08-21T06:54:32;56.90;;;52.65;;
16804;SDS011;8520;50.102;20.010;2022-08-21T06:57:20;57.10;;;52.53;;
16804;SDS011;8520;50.102;20.010;2022-08-21T07:00:09;55.42;;;51.25;;
16804;SDS011;8520;50.102;20.010;2022-08-21T07:03:00;55.55;;;50.97;;
16804;SDS011;8520;50.102;20.010;2022-08-21T07:05:49;52.45;;;48.53;;
16804;SDS011;8520;50.102;20.010;2022-08-21T07:08:38;52.05;;;47.78;;
16804;SDS011;8520;50.102;20.010;2022-08-21T07:11:27;50.85;;;47.13;;
16804;SDS011;8520;50.102;20.010;2022-08-21T07:14:16;50.38;;;46.28;;
16804;SDS011;8520;50.102;20.010;2022-08-21T07:17:06;49.90;;;45.95;;
16804;SDS011;8520;50.102;20.010;2022-08-21T07:19:55;48.25;;;44.88;;
16804;SDS011;8520;50.102;20.010;2022-08-21T07:22:44;48.05;;;44.45;;
16804;SDS011;8520;50.102;20.010;2022-08-21T07:25:33;50.45;;;46.22;;
16804;SDS011;8520;50.102;20.010;2022-08-21T07:28:22;48.35;;;44.40;;
16804;SDS011;8520;50.102;20.010;2022-08-21T07:31:12;48.53;;;44.78;;
16804;SDS011;8520;50.102;20.010;2022-08-21T07:34:02;50.10;;;46.15;;
16804;SDS011;8520;50.102;20.010;2022-08-21T07:36:52;47.95;;;44.30;;
16804;SDS011;8520;50.102;20.010;2022-08-21T07:39:40;50.67;;;46.58;;
16804;SDS011;8520;50.102;20.010;2022-08-21T07:42:29;51.35;;;47.15;;
16804;SDS011;8520;50.102;20.010;2022-08-21T07:45:18;51.95;;;47.85;;
16804;SDS011;8520;50.102;20.010;2022-08-21T07:48:08;48.72;;;44.92;;
16804;SDS011;8520;50.102;20.010;2022-08-21T07:50:57;49.17;;;45.05;;
16804;SDS011;8520;50.102;20.010;2022-08-21T07:53:48;47.67;;;43.83;;
16804;SDS011;8520;50.102;20.010;2022-08-21T07:56:38;46.22;;;42.30;;
16804;SDS011;8520;50.102;20.010;2022-08-21T07:59:27;45.20;;;41.63;;
16804;SDS011;8520;50.102;20.010;2022-08-21T08:02:21;43.35;;;40.13;;
16804;SDS011;8520;50.102;20.010;2022-08-21T08:05:11;43.80;;;40.58;;
16804;SDS011;8520;50.102;20.010;2022-08-21T08:08:00;44.67;;;41.15;;
16804;SDS011;8520;50.102;20.010;2022-08-21T08:10:50;41.90;;;38.58;;
16804;SDS011;8520;50.102;20.010;2022-08-21T08:13:39;40.67;;;37.47;;
16804;SDS011;8520;50.102;20.010;2022-08-21T08:16:28;39.75;;;36.85;;
16804;SDS011;8520;50.102;20.010;2022-08-21T08:19:16;41.40;;;38.10;;
16804;SDS011;8520;50.102;20.010;2022-08-21T08:22:11;39.42;;;36.10;;
16804;SDS011;8520;50.102;20.010;2022-08-21T08:25:01;39.78;;;36.08;;
16804;SDS011;8520;50.102;20.010;2022-08-21T08:27:56;38.72;;;35.17;;
16804;SDS011;8520;50.102;20.010;2022-08-21T08:30:45;37.97;;;35.08;;
16804;SDS011;8520;50.102;20.010;2022-08-21T08:33:34;39.90;;;36.20;;
16804;SDS011;8520;50.102;20.010;2022-08-21T08:36:30;35.67;;;33.08;;
16804;SDS011;8520;50.102;20.010;2022-08-21T08:39:20;36.20;;;33.50;;
16804;SDS011;8520;50.102;20.010;2022-08-21T08:42:16;37.90;;;34.63;;
16804;SDS011;8520;50.102;20.010;2022-08-21T08:45:22;35.92;;;32.97;;
16804;SDS011;8520;50.102;20.010;2022-08-21T08:48:13;36.78;;;33.72;;
16804;SDS011;8520;50.102;20.010;2022-08-21T08:51:04;35.05;;;31.95;;
16804;SDS011;8520;50.102;20.010;2022-08-21T08:54:01;34.80;;;31.88;;
16804;SDS011;8520;50.102;20.010;2022-08-21T08:56:55;34.72;;;31.67;;
16804;SDS011;8520;50.102;20.010;2022-08-21T08:59:46;34.15;;;31.30;;
16804;SDS011;8520;50.102;20.010;2022-08-21T09:02:41;33.80;;;31.23;;
16804;SDS011;8520;50.102;20.010;2022-08-21T09:05:36;31.52;;;29.02;;
16804;SDS011;8520;50.102;20.010;2022-08-21T09:08:35;33.38;;;30.83;;
16804;SDS011;8520;50.102;20.010;2022-08-21T09:11:37;30.48;;;28.05;;
16804;SDS011;8520;50.102;20.010;2022-08-21T09:14:41;29.60;;;27.23;;
16804;SDS011;8520;50.102;20.010;2022-08-21T09:17:44;30.08;;;27.00;;
16804;SDS011;8520;50.102;20.010;2022-08-21T09:20:47;28.42;;;26.23;;
16804;SDS011;8520;50.102;20.010;2022-08-21T09:23:47;29.00;;;26.48;;
16804;SDS011;8520;50.102;20.010;2022-08-21T09:26:44;27.65;;;25.38;;
16804;SDS011;8520;50.102;20.010;2022-08-21T09:29:40;27.33;;;25.23;;
16804;SDS011;8520;50.102;20.010;2022-08-21T09:32:34;27.63;;;25.38;;
16804;SDS011;8520;50.102;20.010;2022-08-21T09:35:26;26.13;;;24.02;;
16804;SDS011;8520;50.102;20.010;2022-08-21T09:38:23;26.92;;;24.80;;
16804;SDS011;8520;50.102;20.010;2022-08-21T09:41:14;27.65;;;25.05;;
16804;SDS011;8520;50.102;20.010;2022-08-21T09:44:03;27.67;;;25.50;;
16804;SDS011;8520;50.102;20.010;2022-08-21T09:46:52;25.40;;;23.52;;
16804;SDS011;8520;50.102;20.010;2022-08-21T09:49:42;27.20;;;24.75;;
16804;SDS011;8520;50.102;20.010;2022-08-21T09:52:35;24.40;;;22.20;;
16804;SDS011;8520;50.102;20.010;2022-08-21T09:55:46;25.55;;;23.38;;
16804;SDS011;8520;50.102;20.010;2022-08-21T09:58:54;26.23;;;23.70;;
16804;SDS011;8520;50.102;20.010;2022-08-21T10:01:44;22.50;;;20.60;;
16804;SDS011;8520;50.102;20.010;2022-08-21T10:04:34;23.75;;;21.85;;
16804;SDS011;8520;50.102;20.010;2022-08-21T10:07:25;24.15;;;21.98;;
16804;SDS011;8520;50.102;20.010;2022-08-21T10:10:18;22.95;;;21.08;;
16804;SDS011;8520;50.102;20.010;2022-08-21T10:13:11;24.25;;;22.10;;
16804;SDS011;8520;50.102;20.010;2022-08-21T10:16:06;22.92;;;20.95;;
16804;SDS011;8520;50.102;20.010;2022-08-21T10:19:08;22.58;;;20.55;;
16804;SDS011;8520;50.102;20.010;2022-08-21T10:22:08;22.33;;;20.23;;
16804;SDS011;8520;50.102;20.010;2022-08-21T10:25:06;22.85;;;20.85;;
16804;SDS011;8520;50.102;20.010;2022-08-21T10:28:05;21.52;;;19.63;;
16804;SDS011;8520;50.102;20.010;2022-08-21T10:31:03;21.75;;;19.30;;
16804;SDS011;8520;50.102;20.010;2022-08-21T10:34:05;22.58;;;20.65;;
16804;SDS011;8520;50.102;20.010;2022-08-21T10:37:10;21.73;;;19.98;;
16804;SDS011;8520;50.102;20.010;2022-08-21T10:40:12;22.90;;;20.63;;
16804;SDS011;8520;50.102;20.010;2022-08-21T10:43:15;20.33;;;18.83;;
16804;SDS011;8520;50.102;20.010;2022-08-21T10:46:11;21.65;;;19.85;;
16804;SDS011;8520;50.102;20.010;2022-08-21T10:49:10;22.75;;;20.45;;
16804;SDS011;8520;50.102;20.010;2022-08-21T10:52:14;23.02;;;20.95;;
16804;SDS011;8520;50.102;20.010;2022-08-21T10:55:17;23.90;;;21.50;;
16804;SDS011;8520;50.102;20.010;2022-08-21T10:58:10;23.42;;;21.33;;
16804;SDS011;8520;50.102;20.010;2022-08-21T11:01:03;23.88;;;21.77;;
16804;SDS011;8520;50.102;20.010;2022-08-21T11:04:03;23.90;;;21.80;;
16804;SDS011;8520;50.102;20.010;2022-08-21T11:07:00;24.58;;;21.98;;
16804;SDS011;8520;50.102;20.010;2022-08-21T11:10:05;24.70;;;22.33;;
16804;SDS011;8520;50.102;20.010;2022-08-21T11:13:03;27.20;;;24.90;;
16804;SDS011;8520;50.102;20.010;2022-08-21T11:15:59;27.77;;;25.30;;
16804;SDS011;8520;50.102;20.010;2022-08-21T11:18:55;29.48;;;26.67;;
16804;SDS011;8520;50.102;20.010;2022-08-21T11:21:48;25.27;;;22.77;;
16804;SDS011;8520;50.102;20.010;2022-08-21T11:24:49;22.95;;;20.63;;
16804;SDS011;8520;50.102;20.010;2022-08-21T11:27:43;20.58;;;18.63;;
16804;SDS011;8520;50.102;20.010;2022-08-21T11:30:39;22.38;;;18.55;;
16804;SDS011;8520;50.102;20.010;2022-08-21T11:33:42;18.90;;;17.00;;
16804;SDS011;8520;50.102;20.010;2022-08-21T11:36:43;14.15;;;13.02;;
16804;SDS011;8520;50.102;20.010;2022-08-21T11:39:41;11.93;;;10.93;;
16804;SDS011;8520;50.102;20.010;2022-08-21T11:42:40;11.05;;;10.25;;
16804;SDS011;8520;50.102;20.010;2022-08-21T11:45:37;13.00;;;11.85;;
16804;SDS011;8520;50.102;20.010;2022-08-21T11:48:34;11.05;;;10.18;;
16804;SDS011;8520;50.102;20.010;2022-08-21T11:51:31;11.23;;;10.32;;
16804;SDS011;8520;50.102;20.010;2022-08-21T11:54:25;12.23;;;11.30;;
16804;SDS011;8520;50.102;20.010;2022-08-21T11:57:19;11.45;;;10.63;;
16804;SDS011;8520;50.102;20.010;2022-08-21T12:00:13;11.77;;;11.05;;
16804;SDS011;8520;50.102;20.010;2022-08-21T12:03:08;10.55;;;9.77;;
16804;SDS011;8520;50.102;20.010;2022-08-21T12:06:00;13.07;;;11.93;;
16804;SDS011;8520;50.102;20.010;2022-08-21T12:08:58;12.35;;;11.48;;
16804;SDS011;8520;50.102;20.010;2022-08-21T12:11:49;11.70;;;11.10;;
16804;SDS011;8520;50.102;20.010;2022-08-21T12:14:48;12.73;;;12.02;;
16804;SDS011;8520;50.102;20.010;2022-08-21T12:17:39;16.55;;;15.48;;
16804;SDS011;8520;50.102;20.010;2022-08-21T12:20:40;14.82;;;13.93;;
16804;SDS011;8520;50.102;20.010;2022-08-21T12:23:43;16.67;;;15.65;;
16804;SDS011;8520;50.102;20.010;2022-08-21T12:26:48;18.83;;;17.58;;
16804;SDS011;8520;50.102;20.010;2022-08-21T12:29:37;17.98;;;16.83;;
16804;SDS011;8520;50.102;20.010;2022-08-21T12:32:42;17.85;;;16.80;;
16804;SDS011;8520;50.102;20.010;2022-08-21T12:35:41;18.27;;;17.30;;
16804;SDS011;8520;50.102;20.010;2022-08-21T12:38:32;18.45;;;17.45;;
16804;SDS011;8520;50.102;20.010;2022-08-21T12:41:27;20.02;;;18.83;;
16804;SDS011;8520;50.102;20.010;2022-08-21T12:44:22;19.90;;;18.70;;
16804;SDS011;8520;50.102;20.010;2022-08-21T12:47:17;20.77;;;19.75;;
16804;SDS011;8520;50.102;20.010;2022-08-21T12:50:16;21.05;;;19.95;;
16804;SDS011;8520;50.102;20.010;2022-08-21T12:53:09;22.30;;;21.30;;
16804;SDS011;8520;50.102;20.010;2022-08-21T12:56:08;25.67;;;24.38;;
16804;SDS011;8520;50.102;20.010;2022-08-21T12:59:00;26.73;;;25.38;;
16804;SDS011;8520;50.102;20.010;2022-08-21T13:01:53;29.08;;;27.67;;
16804;SDS011;8520;50.102;20.010;2022-08-21T13:04:43;31.13;;;29.67;;
16804;SDS011;8520;50.102;20.010;2022-08-21T13:07:35;33.85;;;32.05;;
16804;SDS011;8520;50.102;20.010;2022-08-21T13:10:26;36.63;;;34.92;;
16804;SDS011;8520;50.102;20.010;2022-08-21T13:13:17;40.03;;;38.03;;
16804;SDS011;8520;50.102;20.010;2022-08-21T13:16:14;42.20;;;40.03;;
16804;SDS011;8520;50.102;20.010;2022-08-21T13:19:11;42.95;;;40.65;;
16804;SDS011;8520;50.102;20.010;2022-08-21T13:22:13;43.45;;;41.38;;
16804;SDS011;8520;50.102;20.010;2022-08-21T13:25:21;40.85;;;38.85;;
16804;SDS011;8520;50.102;20.010;2022-08-21T13:28:15;39.85;;;38.00;;
16804;SDS011;8520;50.102;20.010;2022-08-21T13:31:06;36.83;;;35.17;;
16804;SDS011;8520;50.102;20.010;2022-08-21T13:33:57;36.50;;;34.80;;
16804;SDS011;8520;50.102;20.010;2022-08-21T13:36:47;35.53;;;33.83;;
16804;SDS011;8520;50.102;20.010;2022-08-21T13:39:35;34.90;;;33.40;;
16804;SDS011;8520;50.102;20.010;2022-08-21T13:42:25;35.80;;;34.00;;
16804;SDS011;8520;50.102;20.010;2022-08-21T13:45:15;34.22;;;32.58;;
16804;SDS011;8520;50.102;20.010;2022-08-21T13:48:09;32.15;;;30.75;;
16804;SDS011;8520;50.102;20.010;2022-08-21T13:50:57;32.15;;;30.50;;
16804;SDS011;8520;50.102;20.010;2022-08-21T13:53:49;32.22;;;30.63;;
16804;SDS011;8520;50.102;20.010;2022-08-21T13:56:41;33.30;;;31.85;;
16804;SDS011;8520;50.102;20.010;2022-08-21T13:59:32;35.55;;;33.95;;
16804;SDS011;8520;50.102;20.010;2022-08-21T14:02:22;38.63;;;36.65;;
16804;SDS011;8520;50.102;20.010;2022-08-21T14:05:14;40.90;;;39.00;;
16804;SDS011;8520;50.102;20.010;2022-08-21T14:08:06;42.92;;;41.03;;
16804;SDS011;8520;50.102;20.010;2022-08-21T14:11:17;47.10;;;44.80;;
16804;SDS011;8520;50.102;20.010;2022-08-21T14:14:11;48.67;;;46.47;;
16804;SDS011;8520;50.102;20.010;2022-08-21T14:17:09;50.75;;;48.35;;
16804;SDS011;8520;50.102;20.010;2022-08-21T14:20:25;51.65;;;49.25;;
16804;SDS011;8520;50.102;20.010;2022-08-21T14:23:23;51.08;;;48.58;;
16804;SDS011;8520;50.102;20.010;2022-08-21T14:26:12;51.33;;;48.92;;
16804;SDS011;8520;50.102;20.010;2022-08-21T14:29:08;50.08;;;47.78;;
16804;SDS011;8520;50.102;20.010;2022-08-21T14:31:57;48.63;;;46.42;;
16804;SDS011;8520;50.102;20.010;2022-08-21T14:34:50;47.95;;;45.45;;
16804;SDS011;8520;50.102;20.010;2022-08-21T14:37:41;46.60;;;44.38;;
16804;SDS011;8520;50.102;20.010;2022-08-21T14:40:30;44.60;;;42.60;;
16804;SDS011;8520;50.102;20.010;2022-08-21T14:43:22;43.25;;;41.35;;
16804;SDS011;8520;50.102;20.010;2022-08-21T14:46:13;42.20;;;40.20;;
16804;SDS011;8520;50.102;20.010;2022-08-21T14:49:08;40.20;;;38.17;;
16804;SDS011;8520;50.102;20.010;2022-08-21T14:51:56;38.78;;;37.05;;
16804;SDS011;8520;50.102;20.010;2022-08-21T14:54:45;36.22;;;34.53;;
16804;SDS011;8520;50.102;20.010;2022-08-21T14:57:34;33.85;;;32.38;;
16804;SDS011;8520;50.102;20.010;2022-08-21T15:00:24;32.33;;;31.02;;
16804;SDS011;8520;50.102;20.010;2022-08-21T15:03:22;31.08;;;29.77;;
16804;SDS011;8520;50.102;20.010;2022-08-21T15:06:10;31.25;;;29.95;;
16804;SDS011;8520;50.102;20.010;2022-08-21T15:08:58;32.25;;;30.95;;
16804;SDS011;8520;50.102;20.010;2022-08-21T15:11:49;32.83;;;31.40;;
16804;SDS011;8520;50.102;20.010;2022-08-21T15:14:38;33.58;;;31.95;;
16804;SDS011;8520;50.102;20.010;2022-08-21T15:17:29;33.58;;;32.08;;
16804;SDS011;8520;50.102;20.010;2022-08-21T15:20:17;34.58;;;32.97;;
16804;SDS011;8520;50.102;20.010;2022-08-21T15:23:07;33.97;;;32.58;;
16804;SDS011;8520;50.102;20.010;2022-08-21T15:26:00;35.13;;;33.72;;
16804;SDS011;8520;50.102;20.010;2022-08-21T15:28:49;35.17;;;33.58;;
16804;SDS011;8520;50.102;20.010;2022-08-21T15:31:39;35.78;;;34.30;;
16804;SDS011;8520;50.102;20.010;2022-08-21T15:34:39;35.85;;;34.35;;
16804;SDS011;8520;50.102;20.010;2022-08-21T15:37:28;35.45;;;34.05;;
16804;SDS011;8520;50.102;20.010;2022-08-21T15:40:16;37.42;;;35.92;;
16804;SDS011;8520;50.102;20.010;2022-08-21T15:43:05;39.50;;;37.80;;
16804;SDS011;8520;50.102;20.010;2022-08-21T15:45:54;39.90;;;38.00;;
16804;SDS011;8520;50.102;20.010;2022-08-21T15:48:43;43.00;;;40.83;;
16804;SDS011;8520;50.102;20.010;2022-08-21T15:51:35;46.25;;;44.05;;
16804;SDS011;8520;50.102;20.010;2022-08-21T15:54:29;49.45;;;47.15;;
16804;SDS011;8520;50.102;20.010;2022-08-21T15:57:18;54.30;;;51.38;;
16804;SDS011;8520;50.102;20.010;2022-08-21T16:00:11;58.67;;;55.58;;
16804;SDS011;8520;50.102;20.010;2022-08-21T16:03:03;65.55;;;61.83;;
16804;SDS011;8520;50.102;20.010;2022-08-21T16:05:53;70.20;;;66.35;;
16804;SDS011;8520;50.102;20.010;2022-08-21T16:08:45;72.00;;;68.20;;
16804;SDS011;8520;50.102;20.010;2022-08-21T16:11:33;77.55;;;73.22;;
16804;SDS011;8520;50.102;20.010;2022-08-21T16:14:22;82.63;;;78.00;;
16804;SDS011;8520;50.102;20.010;2022-08-21T16:17:10;85.60;;;80.68;;
16804;SDS011;8520;50.102;20.010;2022-08-21T16:19:59;89.53;;;84.32;;
16804;SDS011;8520;50.102;20.010;2022-08-21T16:22:50;92.32;;;87.22;;
16804;SDS011;8520;50.102;20.010;2022-08-21T16:25:40;96.60;;;91.00;;
16804;SDS011;8520;50.102;20.010;2022-08-21T16:28:29;99.63;;;93.95;;
16804;SDS011;8520;50.102;20.010;2022-08-21T16:31:19;102.25;;;96.25;;
16804;SDS011;8520;50.102;20.010;2022-08-21T16:34:07;104.60;;;98.45;;
16804;SDS011;8520;50.102;20.010;2022-08-21T16:37:02;105.13;;;98.97;;
16804;SDS011;8520;50.102;20.010;2022-08-21T16:39:51;108.65;;;101.95;;
16804;SDS011;8520;50.102;20.010;2022-08-21T16:42:41;107.25;;;100.97;;